Time;durP1;ratioP1;P1;durP2;ratioP2;P2;SDS_P1;SDS_P2;PMS_P1;PMS_P2;Temp;Humidity;BMP_temperature;BMP_pressure;BME280_temperature;BME280_humidity;BME280_pressure;Samples;Min_cycle;Max_cycle;Signal;HPM_P1;HPM_P2
2023/05/09 00:00:16;;;;;;;10.77;9.30;;;;;;;11.84;100.00;96658.75;5009918;28;102722;-62
2023/05/09 00:02:46;;;;;;;10.20;9.30;;;;;;;11.88;100.00;96673.19;5009485;28;101883;-62
2023/05/09 00:08:36;;;;;;;10.40;9.40;;;;;;;11.82;100.00;96660.88;5024059;28;101786;-62
2023/05/09 00:11:04;;;;;;;9.30;8.40;;;;;;;11.85;100.00;96657.69;5030429;28;102559;-62
2023/05/09 00:13:30;;;;;;;9.20;8.40;;;;;;;11.73;100.00;96659.69;5029510;27;103050;-62
2023/05/09 00:15:57;;;;;;;9.90;9.00;;;;;;;11.61;100.00;96651.06;5027604;28;101828;-62
2023/05/09 00:18:27;;;;;;;9.83;9.03;;;;;;;11.58;100.00;96648.84;5028620;28;105413;-62
2023/05/09 00:20:54;;;;;;;9.83;8.93;;;;;;;11.70;100.00;96649.53;5019782;28;103757;-62
2023/05/09 00:23:25;;;;;;;9.80;8.50;;;;;;;11.75;100.00;96652.25;5008766;28;102569;-62
2023/05/09 00:25:52;;;;;;;9.77;8.87;;;;;;;11.72;100.00;96650.09;5008995;28;105544;-62
2023/05/09 00:28:19;;;;;;;9.07;8.27;;;;;;;11.64;100.00;96646.03;5024427;28;105017;-62
2023/05/09 00:30:46;;;;;;;9.20;8.30;;;;;;;11.67;100.00;96642.06;5014570;28;104974;-62
2023/05/09 00:33:13;;;;;;;9.40;8.60;;;;;;;11.62;100.00;96642.00;5009587;28;102730;-62
2023/05/09 00:35:42;;;;;;;10.27;8.70;;;;;;;11.43;100.00;96633.50;5008791;28;102007;-62
2023/05/09 00:38:09;;;;;;;8.63;7.93;;;;;;;11.47;100.00;96639.13;5020239;28;105320;-62
2023/05/09 00:40:35;;;;;;;9.00;8.20;;;;;;;11.38;100.00;96632.63;5027765;28;105845;-62
2023/05/09 00:43:03;;;;;;;9.47;8.67;;;;;;;11.35;100.00;96627.81;5018058;28;102108;-62
2023/05/09 00:45:30;;;;;;;8.20;7.40;;;;;;;11.13;100.00;96629.69;5008398;28;105060;-62
2023/05/09 00:47:57;;;;;;;8.97;8.17;;;;;;;11.20;100.00;96632.94;5017293;28;105258;-62
2023/05/09 00:50:24;;;;;;;8.33;7.53;;;;;;;11.18;100.00;96627.09;5032243;27;102540;-62
2023/05/09 00:52:53;;;;;;;8.60;7.80;;;;;;;11.20;100.00;96627.63;5021804;28;105087;-62
2023/05/09 00:58:42;;;;;;;9.50;8.27;;;;;;;11.13;100.00;96627.03;5028857;28;102608;-62
2023/05/09 01:01:09;;;;;;;8.60;7.90;;;;;;;11.08;100.00;96618.97;5029457;28;105300;-62
2023/05/09 01:03:47;;;;;;;9.23;8.30;;;;;;;11.06;100.00;96613.09;5033476;28;101904;-62
2023/05/09 01:06:22;;;;;;;8.83;8.03;;;;;;;11.05;100.00;96609.63;5031620;28;105783;-62
2023/05/09 01:08:59;;;;;;;8.60;7.80;;;;;;;10.95;100.00;96620.13;5016421;27;102475;-62
2023/05/09 01:11:31;;;;;;;8.83;8.03;;;;;;;10.72;100.00;96609.72;5016687;28;101891;-62
2023/05/09 01:14:20;;;;;;;8.67;7.83;;;;;;;10.79;100.00;96618.31;5011292;28;105973;-62
2023/05/09 01:16:54;;;;;;;8.30;7.60;;;;;;;10.83;100.00;96613.31;5011652;28;101860;-62
2023/05/09 01:19:41;;;;;;;8.10;7.33;;;;;;;10.76;100.00;96615.34;5008653;28;104550;-62
2023/05/09 01:22:10;;;;;;;8.50;7.80;;;;;;;10.80;100.00;96619.13;5025184;28;102529;-62
2023/05/09 01:25:01;;;;;;;8.67;7.97;;;;;;;10.82;100.00;96611.72;5014782;28;102000;-62
2023/05/09 01:27:43;;;;;;;9.03;8.13;;;;;;;10.82;100.00;96609.03;5018545;28;102542;-62
2023/05/09 01:30:12;;;;;;;8.10;7.30;;;;;;;10.79;100.00;96601.56;5032264;27;101721;-62
2023/05/09 01:32:40;;;;;;;8.33;7.63;;;;;;;10.75;100.00;96597.78;4991568;28;102309;-62
2023/05/09 01:35:47;;;;;;;8.63;7.83;;;;;;;10.80;100.00;96589.88;5012102;28;104840;-62
2023/05/09 01:38:18;;;;;;;8.47;7.77;;;;;;;10.79;100.00;96593.59;5011812;28;101900;-62
2023/05/09 01:40:48;;;;;;;8.70;7.97;;;;;;;10.68;100.00;96592.63;5031466;28;104836;-62
2023/05/09 01:43:18;;;;;;;9.47;8.57;;;;;;;10.61;100.00;96589.34;5031078;27;102677;-62
2023/05/09 01:45:48;;;;;;;9.97;8.97;;;;;;;10.59;100.00;96594.13;5011409;28;102429;-62
2023/05/09 01:48:16;;;;;;;9.77;8.70;;;;;;;10.54;100.00;96595.91;5017293;28;105343;-62
2023/05/09 01:50:45;;;;;;;9.23;8.33;;;;;;;10.55;100.00;96594.84;5030783;28;105371;-62
2023/05/09 01:53:27;;;;;;;8.60;7.70;;;;;;;10.56;100.00;96597.25;5031056;28;101908;-62
2023/05/09 01:55:56;;;;;;;9.67;8.23;;;;;;;10.54;100.00;96593.25;5031539;28;104746;-62
2023/05/09 01:58:25;;;;;;;9.37;8.53;;;;;;;10.48;100.00;96588.91;5025142;28;105300;-62
2023/05/09 02:00:54;;;;;;;8.90;8.10;;;;;;;10.42;100.00;96588.00;5011122;28;105620;-62
2023/05/09 02:03:45;;;;;;;9.00;8.20;;;;;;;10.44;100.00;96585.13;5014668;28;102518;-62
2023/05/09 02:06:13;;;;;;;9.50;8.60;;;;;;;10.35;100.00;96592.69;5011108;28;101953;-62
2023/05/09 02:08:41;;;;;;;9.53;8.63;;;;;;;10.25;100.00;96581.91;5025507;28;105513;-62
2023/05/09 02:11:08;;;;;;;9.80;8.80;;;;;;;10.30;100.00;96578.53;5015260;27;102529;-62
2023/05/09 02:13:37;;;;;;;9.43;8.53;;;;;;;10.28;100.00;96583.28;5032467;27;102079;-62
2023/05/09 02:16:07;;;;;;;9.70;8.70;;;;;;;10.13;100.00;96589.19;5016779;28;105599;-62
2023/05/09 02:18:36;;;;;;;10.23;9.30;;;;;;;10.05;100.00;96591.44;5011888;28;102585;-62
2023/05/09 02:21:03;;;;;;;10.00;9.10;;;;;;;10.06;100.00;96595.69;5014165;28;101844;-62
2023/05/09 02:26:53;;;;;;;10.67;9.20;;;;;;;9.90;100.00;96583.19;5028774;28;101831;-62
2023/05/09 02:29:25;;;;;;;9.17;8.37;;;;;;;9.96;100.00;96576.91;5010128;28;104191;-62
2023/05/09 02:31:55;;;;;;;9.23;8.37;;;;;;;10.01;100.00;96574.31;4974060;28;105863;-62
2023/05/09 02:34:46;;;;;;;10.10;9.13;;;;;;;10.05;100.00;96572.84;4992037;28;101803;-62
2023/05/09 02:37:14;;;;;;;9.03;8.17;;;;;;;10.05;100.00;96565.69;5014944;28;102785;-62
2023/05/09 02:39:41;;;;;;;9.70;8.70;;;;;;;10.03;100.00;96573.03;5029699;28;105353;-62
2023/05/09 02:42:10;;;;;;;9.53;8.63;;;;;;;10.01;100.00;96574.31;5030559;28;101843;-62
2023/05/09 02:44:51;;;;;;;9.47;8.57;;;;;;;9.92;100.00;96579.25;5032001;28;103634;-62
2023/05/09 02:47:20;;;;;;;9.07;8.27;;;;;;;9.90;100.00;96580.53;5016048;28;101754;-62
2023/05/09 02:49:47;;;;;;;9.00;7.90;;;;;;;9.84;100.00;96578.84;5027575;28;104874;-62
2023/05/09 02:52:15;;;;;;;8.97;8.07;;;;;;;9.84;100.00;96573.53;5009876;28;105142;-62
2023/05/09 02:55:31;;;;;;;10.90;7.83;;;;;;;9.76;100.00;96563.31;5011568;28;101983;-62
2023/05/09 02:57:58;;;;;;;9.77;8.77;;;;;;;9.68;100.00;96566.34;5010886;28;104125;-62
2023/05/09 03:00:30;;;;;;;9.57;8.77;;;;;;;9.60;100.00;96580.03;5029422;28;105204;-62
2023/05/09 03:03:00;;;;;;;10.30;9.27;;;;;;;9.47;100.00;96569.69;5030305;28;102277;-62
2023/05/09 03:05:27;;;;;;;9.90;8.90;;;;;;;9.57;100.00;96568.03;5017591;28;105077;-62
2023/05/09 03:07:54;;;;;;;9.97;9.07;;;;;;;9.61;100.00;96571.00;5012926;28;104203;-62
2023/05/09 03:10:21;;;;;;;10.00;8.60;;;;;;;9.64;100.00;96570.53;5011566;28;102740;-62
2023/05/09 03:12:48;;;;;;;9.03;8.23;;;;;;;9.63;100.00;96577.69;5010752;28;103031;-62
2023/05/09 03:15:15;;;;;;;9.00;8.20;;;;;;;9.49;100.00;96568.41;5009895;28;101926;-62
2023/05/09 03:17:44;;;;;;;9.20;8.33;;;;;;;9.51;100.00;96568.19;5009786;28;105001;-62
2023/05/09 03:20:13;;;;;;;8.87;8.07;;;;;;;9.46;100.00;96565.44;5010719;28;103478;-62
2023/05/09 03:22:39;;;;;;;8.40;7.67;;;;;;;9.41;100.00;96568.00;5009631;28;101935;-62
2023/05/09 03:25:16;;;;;;;8.63;7.73;;;;;;;9.34;100.00;96570.81;5010287;28;104945;-62
2023/05/09 03:27:43;;;;;;;9.73;8.63;;;;;;;9.37;100.00;96562.38;5027660;28;104011;-62
2023/05/09 03:30:14;;;;;;;9.63;8.63;;;;;;;9.31;100.00;96559.84;5009704;28;104693;-62
2023/05/09 03:32:43;;;;;;;9.30;8.40;;;;;;;9.20;100.00;96561.53;5009115;28;105638;-62
2023/05/09 03:35:15;;;;;;;8.63;7.93;;;;;;;9.15;100.00;96563.25;5017744;28;101863;-62
2023/05/09 03:37:42;;;;;;;8.47;7.67;;;;;;;9.01;100.00;96565.41;4991174;28;104866;-62
2023/05/09 03:40:10;;;;;;;10.80;9.70;;;;;;;9.12;100.00;96561.09;4988897;28;103955;-62
2023/05/09 03:42:47;;;;;;;9.60;8.70;;;;;;;9.13;100.00;96570.66;4994766;28;102243;-62
2023/05/09 03:45:24;;;;;;;9.50;8.50;;;;;;;9.08;100.00;96559.94;5009563;28;105249;-62
2023/05/09 03:47:51;;;;;;;8.73;7.93;;;;;;;9.02;100.00;96569.66;5023753;28;105079;-62
2023/05/09 03:50:20;;;;;;;8.93;8.00;;;;;;;9.02;100.00;96568.84;5012927;28;101983;-62
2023/05/09 03:52:47;;;;;;;10.30;8.57;;;;;;;9.00;100.00;96570.94;5008747;28;105579;-62
2023/05/09 03:55:17;;;;;;;8.70;7.90;;;;;;;8.92;100.00;96564.16;5015406;28;101983;-62
2023/05/09 03:57:44;;;;;;;9.33;8.53;;;;;;;8.90;100.00;96565.44;5025943;27;104358;-62
2023/05/09 04:00:12;;;;;;;10.37;9.37;;;;;;;8.86;100.00;96569.59;5010275;28;104754;-62
2023/05/09 04:02:52;;;;;;;9.20;8.37;;;;;;;8.86;100.00;96564.28;5018642;28;103654;-62
2023/05/09 04:05:34;;;;;;;9.20;8.23;;;;;;;8.81;100.00;96561.53;5009350;28;105396;-62
2023/05/09 04:08:02;;;;;;;9.77;8.87;;;;;;;8.87;100.00;96564.06;5018508;28;102529;-62
2023/05/09 04:10:30;;;;;;;11.33;8.80;;;;;;;8.89;100.00;96563.84;5028529;28;102086;-62
2023/05/09 04:12:58;;;;;;;9.97;8.97;;;;;;;8.69;100.00;96564.22;5031134;28;104930;-62
2023/05/09 04:15:26;;;;;;;9.53;8.50;;;;;;;8.77;100.00;96566.50;5028518;28;101852;-62
2023/05/09 04:17:54;;;;;;;9.00;8.17;;;;;;;8.66;100.00;96562.03;5028391;28;103846;-62
2023/05/09 04:20:21;;;;;;;10.13;9.13;;;;;;;8.73;100.00;96559.25;5027994;28;105800;-62
2023/05/09 04:22:50;;;;;;;10.27;9.10;;;;;;;8.76;100.00;96559.59;5028422;28;102315;-62
2023/05/09 04:25:20;;;;;;;10.37;9.37;;;;;;;8.78;100.00;96567.31;5028054;28;105198;-62
2023/05/09 04:27:47;;;;;;;10.67;9.53;;;;;;;8.84;100.00;96561.88;5027525;28;105567;-62
2023/05/09 04:30:16;;;;;;;10.70;9.70;;;;;;;8.93;100.00;96563.13;5028646;28;101809;-62
2023/05/09 04:32:44;;;;;;;11.10;10.00;;;;;;;9.02;100.00;96563.56;5028229;28;105017;-62
2023/05/09 04:35:14;;;;;;;10.63;9.63;;;;;;;9.07;100.00;96568.97;5030235;28;105542;-62
2023/05/09 04:37:45;;;;;;;11.73;10.53;;;;;;;9.06;100.00;96568.13;5028800;28;104835;-62
2023/05/09 04:40:14;;;;;;;10.17;9.17;;;;;;;8.96;100.00;96564.50;5027343;28;105742;-62
2023/05/09 04:42:48;;;;;;;11.17;10.03;;;;;;;9.06;100.00;96556.75;5028598;28;101871;-62
2023/05/09 04:45:17;;;;;;;12.20;11.00;;;;;;;8.97;100.00;96563.44;5027838;28;102610;-62
2023/05/09 04:47:44;;;;;;;12.83;11.30;;;;;;;8.94;100.00;96566.59;5026805;28;104005;-62
2023/05/09 04:50:12;;;;;;;10.83;9.73;;;;;;;9.10;100.00;96565.84;5027848;28;101968;-62
2023/05/09 04:52:39;;;;;;;12.23;10.97;;;;;;;9.25;100.00;96558.16;5010760;28;104763;-62
2023/05/09 04:55:55;;;;;;;11.87;10.77;;;;;;;9.36;100.00;96560.75;5007085;28;104945;-62
2023/05/09 04:58:25;;;;;;;11.73;10.63;;;;;;;9.43;100.00;96560.63;5011115;28;101856;-62
2023/05/09 05:00:53;;;;;;;11.80;10.60;;;;;;;9.53;100.00;96563.44;5007105;28;105574;-62
2023/05/09 05:06:42;;;;;;;11.27;10.20;;;;;;;9.87;100.00;96557.13;5007372;28;105238;-61
2023/05/09 05:09:09;;;;;;;11.33;10.17;;;;;;;10.16;100.00;96553.34;5006824;28;105269;-61
2023/05/09 05:11:36;;;;;;;11.63;10.23;;;;;;;10.36;100.00;96545.66;5007349;28;102203;-61
2023/05/09 05:14:31;;;;;;;11.10;10.00;;;;;;;10.55;100.00;96546.97;5007464;28;105375;-61
2023/05/09 05:16:58;;;;;;;12.27;11.13;;;;;;;10.63;100.00;96542.03;5006752;28;105495;-61
2023/05/09 05:19:25;;;;;;;11.50;10.30;;;;;;;10.81;100.00;96544.41;5007353;28;101890;-61
2023/05/09 05:21:52;;;;;;;11.83;10.63;;;;;;;11.02;100.00;96542.78;5010106;28;105303;-61
2023/05/09 05:24:22;;;;;;;11.80;10.60;;;;;;;11.23;100.00;96537.44;5007308;28;101917;-61
2023/05/09 05:26:49;;;;;;;11.43;10.27;;;;;;;11.38;100.00;96536.78;5007234;28;103725;-61
2023/05/09 05:29:17;;;;;;;11.07;10.10;;;;;;;11.44;100.00;96538.47;5006240;28;105700;-61
2023/05/09 05:31:46;;;;;;;10.83;9.73;;;;;;;11.56;100.00;96533.78;5007200;28;102457;-61
2023/05/09 05:34:18;;;;;;;12.13;10.97;;;;;;;11.75;100.00;96535.03;5007887;28;105142;-61
2023/05/09 05:36:46;;;;;;;10.73;9.63;;;;;;;11.87;100.00;96530.31;5006510;28;105163;-61
2023/05/09 05:39:13;;;;;;;10.90;9.93;;;;;;;11.98;100.00;96540.00;5010926;28;101885;-61
2023/05/09 05:41:40;;;;;;;10.83;9.83;;;;;;;12.09;100.00;96533.69;5014095;28;104974;-61
2023/05/09 05:44:08;;;;;;;11.13;9.70;;;;;;;12.07;100.00;96536.63;5010967;28;101923;-61
2023/05/09 05:46:35;;;;;;;10.50;9.50;;;;;;;11.95;100.00;96535.19;5010992;28;104759;-61
2023/05/09 05:49:04;;;;;;;11.37;10.20;;;;;;;11.97;100.00;96530.41;5009825;28;103988;-61
2023/05/09 05:51:33;;;;;;;10.67;9.67;;;;;;;12.14;100.00;96523.88;5009210;28;101920;-61
2023/05/09 05:54:05;;;;;;;11.43;10.20;;;;;;;12.14;100.00;96529.19;5010853;28;105682;-61
2023/05/09 05:56:34;;;;;;;11.20;10.10;;;;;;;12.21;100.00;96529.78;5009041;28;103959;-61
2023/05/09 05:59:01;;;;;;;11.20;10.17;;;;;;;12.43;100.00;96537.66;5009723;28;102486;-61
2023/05/09 06:01:28;;;;;;;11.00;10.00;;;;;;;12.64;100.00;96528.72;5009446;28;104874;-61
2023/05/09 06:03:56;;;;;;;12.20;10.93;;;;;;;12.61;100.00;96534.56;5012151;28;105415;-61
2023/05/09 06:06:28;;;;;;;11.40;10.30;;;;;;;12.54;100.00;96536.66;5009464;28;104743;-61
2023/05/09 06:08:56;;;;;;;11.50;10.40;;;;;;;12.62;100.00;96536.16;5009096;28;105234;-61
2023/05/09 06:11:23;;;;;;;11.23;10.13;;;;;;;12.85;100.00;96533.06;5009226;28;102141;-61
2023/05/09 06:13:50;;;;;;;11.23;10.07;;;;;;;13.04;100.00;96529.69;5009544;28;105307;-61
2023/05/09 06:16:17;;;;;;;11.13;10.13;;;;;;;13.17;100.00;96531.06;5008919;28;105221;-61
2023/05/09 06:18:44;;;;;;;11.77;10.57;;;;;;;13.20;100.00;96526.00;5009242;28;102183;-61
2023/05/09 06:21:11;;;;;;;12.10;10.90;;;;;;;13.30;100.00;96519.91;5009226;28;105536;-61
2023/05/09 06:23:39;;;;;;;11.53;10.33;;;;;;;13.21;100.00;96519.63;5008575;28;105135;-61
2023/05/09 06:26:06;;;;;;;12.37;10.53;;;;;;;13.35;100.00;96514.56;5012741;28;101828;-61
2023/05/09 06:28:33;;;;;;;11.13;10.03;;;;;;;13.28;100.00;96512.16;5008222;28;105182;-61
2023/05/09 06:31:00;;;;;;;11.70;10.57;;;;;;;13.59;100.00;96510.31;5008964;28;102057;-61
2023/05/09 06:33:27;;;;;;;11.33;10.23;;;;;;;13.50;100.00;96511.91;5008789;28;105192;-61
2023/05/09 06:35:54;;;;;;;12.17;11.00;;;;;;;13.72;100.00;96507.13;5010195;28;102521;-61
2023/05/09 06:38:21;;;;;;;12.80;11.60;;;;;;;13.87;100.00;96505.25;5010524;28;101766;-61
2023/05/09 06:40:49;;;;;;;12.43;11.23;;;;;;;14.00;100.00;96504.72;5010182;28;101750;-61
2023/05/09 06:43:16;;;;;;;12.83;11.53;;;;;;;14.18;100.00;96501.47;5008573;28;105439;-61
2023/05/09 06:45:43;;;;;;;13.27;11.97;;;;;;;14.16;100.00;96492.13;5009005;28;102203;-61
2023/05/09 06:48:11;;;;;;;12.43;11.23;;;;;;;14.33;100.00;96493.47;5013075;28;102602;-61
2023/05/09 06:50:38;;;;;;;12.50;11.40;;;;;;;14.31;100.00;96492.94;5008605;28;102191;-61
2023/05/09 06:53:05;;;;;;;12.70;11.50;;;;;;;14.64;100.00;96497.66;5010070;28;102761;-61
2023/05/09 06:55:32;;;;;;;12.43;11.23;;;;;;;14.25;100.00;96501.25;5008383;28;105437;-61
2023/05/09 06:58:00;;;;;;;11.93;10.73;;;;;;;14.52;100.00;96499.84;5008808;28;102312;-61
2023/05/09 07:00:27;;;;;;;13.03;11.73;;;;;;;14.40;100.00;96498.53;5008267;28;105179;-61
2023/05/09 07:02:54;;;;;;;15.30;12.67;;;;;;;14.55;100.00;96485.91;5007939;28;105410;-61
2023/05/09 07:05:21;;;;;;;14.07;12.13;;;;;;;14.57;100.00;96491.81;5008656;28;101947;-61
2023/05/09 07:07:48;;;;;;;17.23;13.53;;;;;;;14.98;100.00;96479.06;5010187;28;102425;-61
2023/05/09 07:10:15;;;;;;;16.30;14.47;;;;;;;15.19;100.00;96467.94;5011241;28;105636;-61
2023/05/09 07:12:42;;;;;;;15.83;14.23;;;;;;;15.22;100.00;96463.91;5009886;28;102998;-61
2023/05/09 07:15:12;;;;;;;15.20;13.30;;;;;;;15.44;100.00;96465.16;5007925;28;103129;-61
2023/05/09 07:17:39;;;;;;;16.23;14.60;;;;;;;15.57;100.00;96469.06;5009808;28;102032;-61
2023/05/09 07:20:07;;;;;;;15.67;14.03;;;;;;;15.44;100.00;96464.34;5009648;28;102884;-61
2023/05/09 07:22:34;;;;;;;14.97;13.47;;;;;;;15.23;100.00;96462.84;5009022;28;102746;-61
2023/05/09 07:25:02;;;;;;;16.57;14.87;;;;;;;15.62;100.00;96456.44;5009406;28;101923;-61
2023/05/09 07:27:29;;;;;;;17.37;15.20;;;;;;;15.72;100.00;96451.00;5009850;28;102292;-61
2023/05/09 07:29:56;;;;;;;17.50;15.63;;;;;;;15.41;100.00;96457.66;5007369;28;105456;-61
2023/05/09 07:32:26;;;;;;;16.87;15.10;;;;;;;15.67;100.00;96452.91;5011340;28;102460;-61
2023/05/09 07:34:53;;;;;;;17.60;15.80;;;;;;;16.06;100.00;96456.31;5007628;28;105932;-61
2023/05/09 07:37:20;;;;;;;16.93;15.23;;;;;;;16.33;100.00;96456.56;5009388;28;101823;-61
2023/05/09 07:39:47;;;;;;;16.57;14.77;;;;;;;16.42;100.00;96453.03;5009296;28;102687;-61
2023/05/09 07:42:14;;;;;;;14.70;13.30;;;;;;;16.31;100.00;96461.44;5008760;28;103105;-61
2023/05/09 07:44:41;;;;;;;15.10;13.60;;;;;;;16.35;100.00;96452.53;5009369;28;101858;-61
2023/05/09 07:47:09;;;;;;;14.33;13.03;;;;;;;16.51;100.00;96437.88;5009669;28;102330;-61
2023/05/09 07:49:39;;;;;;;15.53;13.23;;;;;;;16.77;100.00;96433.00;5008711;28;102802;-61
2023/05/09 07:52:06;;;;;;;14.47;12.97;;;;;;;16.94;100.00;96426.06;5011217;28;102084;-61
2023/05/09 07:54:33;;;;;;;15.80;14.20;;;;;;;16.76;100.00;96423.34;5007073;28;105124;-61
2023/05/09 07:57:02;;;;;;;14.97;13.33;;;;;;;16.86;100.00;96428.59;5009579;28;102032;-61
2023/05/09 07:59:29;;;;;;;14.13;12.83;;;;;;;17.19;100.00;96417.66;5009080;28;102564;-61
2023/05/09 08:01:56;;;;;;;14.47;12.97;;;;;;;17.50;100.00;96415.34;5006491;28;103863;-61
2023/05/09 08:04:26;;;;;;;16.37;14.73;;;;;;;17.31;100.00;96420.69;5007626;28;101998;-61
2023/05/09 08:06:54;;;;;;;15.80;13.50;;;;;;;17.52;100.00;96415.84;5007728;28;104804;-61
2023/05/09 08:09:21;;;;;;;14.93;13.53;;;;;;;17.70;100.00;96415.00;5006943;28;104095;-61
2023/05/09 08:11:48;;;;;;;14.77;13.27;;;;;;;17.83;100.00;96411.56;5008778;28;101965;-61
2023/05/09 08:14:15;;;;;;;14.40;13.00;;;;;;;17.82;100.00;96415.34;5010486;28;104928;-61
2023/05/09 08:16:42;;;;;;;14.03;12.63;;;;;;;17.65;100.00;96407.81;5007391;28;101957;-61
2023/05/09 08:19:09;;;;;;;14.27;12.83;;;;;;;18.18;100.00;96408.22;5007594;28;105334;-61
2023/05/09 08:21:36;;;;;;;14.50;13.00;;;;;;;17.25;100.00;96402.25;5006999;28;104341;-61
2023/05/09 08:24:06;;;;;;;14.17;12.77;;;;;;;17.32;100.00;96397.28;5007253;28;102017;-61
2023/05/09 08:26:34;;;;;;;14.20;12.80;;;;;;;17.51;100.00;96390.03;5007154;28;105614;-61
2023/05/09 08:29:01;;;;;;;13.80;12.50;;;;;;;17.29;100.00;96384.44;5007777;28;102759;-61
2023/05/09 08:31:27;;;;;;;14.70;13.30;;;;;;;17.64;100.00;96390.09;5007274;28;102466;-61
2023/05/09 08:33:54;;;;;;;13.67;12.33;;;;;;;17.74;100.00;96376.47;5007137;28;104778;-61
2023/05/09 08:36:21;;;;;;;13.33;12.13;;;;;;;17.56;100.00;96373.84;5010166;28;105007;-61
2023/05/09 08:38:48;;;;;;;13.93;12.60;;;;;;;17.59;100.00;96378.59;5007278;28;105330;-61
2023/05/09 08:41:17;;;;;;;13.43;12.03;;;;;;;17.56;100.00;96371.16;5006836;28;103970;-61
2023/05/09 08:43:45;;;;;;;11.67;10.63;;;;;;;17.62;100.00;96376.16;5008156;28;101964;-61
2023/05/09 08:46:13;;;;;;;13.33;12.13;;;;;;;17.66;100.00;96379.03;5007270;28;104847;-61
2023/05/09 08:48:40;;;;;;;13.20;11.83;;;;;;;18.01;100.00;96375.72;5006239;28;105154;-61
2023/05/09 08:51:08;;;;;;;11.97;10.77;;;;;;;18.55;100.00;96370.38;5007146;28;102725;-61
2023/05/09 08:53:35;;;;;;;13.00;11.70;;;;;;;18.12;100.00;96369.06;5007109;28;105132;-61
2023/05/09 08:56:03;;;;;;;12.23;10.93;;;;;;;18.31;100.00;96362.47;5006507;28;103744;-61
2023/05/09 08:58:34;;;;;;;11.97;10.77;;;;;;;18.59;100.00;96366.00;5010150;28;102213;-61
2023/05/09 09:01:05;;;;;;;12.27;11.07;;;;;;;18.53;100.00;96364.50;5006553;28;105314;-61
2023/05/09 09:03:33;;;;;;;11.60;10.60;;;;;;;18.39;100.00;96356.44;5008370;28;101834;-61
2023/05/09 09:06:00;;;;;;;13.10;11.80;;;;;;;18.27;100.00;96348.03;5006888;28;105209;-61
2023/05/09 09:08:28;;;;;;;13.83;12.43;;;;;;;18.42;100.00;96349.66;5007759;28;103032;-61
2023/05/09 09:10:55;;;;;;;13.23;11.83;;;;;;;19.10;100.00;96343.03;5008238;28;102285;-61
2023/05/09 09:13:23;;;;;;;13.83;12.50;;;;;;;18.70;100.00;96335.06;5009617;28;102336;-61
2023/05/09 09:15:53;;;;;;;14.13;12.47;;;;;;;18.99;100.00;96338.16;5011456;28;102734;-61
2023/05/09 09:18:23;;;;;;;12.33;11.13;;;;;;;19.16;100.00;96322.13;5011620;28;101967;-61
2023/05/09 09:20:56;;;;;;;13.30;11.97;;;;;;;19.45;100.00;96317.16;5014501;28;102391;-61
2023/05/09 09:23:25;;;;;;;11.87;10.77;;;;;;;19.27;100.00;96312.72;5009929;28;101986;-61
2023/05/09 09:25:58;;;;;;;11.57;10.50;;;;;;;20.00;100.00;96304.91;5011775;28;102893;-61
2023/05/09 09:28:25;;;;;;;12.23;11.07;;;;;;;19.76;100.00;96304.47;5010684;28;102315;-60
2023/05/09 09:30:53;;;;;;;10.60;9.60;;;;;;;20.12;100.00;96292.41;5011537;28;101862;-61
2023/05/09 09:33:21;;;;;;;10.33;9.33;;;;;;;20.19;100.00;96292.78;5010835;28;105672;-61
2023/05/09 09:35:50;;;;;;;11.43;9.90;;;;;;;20.72;100.00;96284.47;5010540;28;105838;-61
2023/05/09 09:38:17;;;;;;;11.30;9.93;;;;;;;20.88;100.00;96278.25;5010900;28;102001;-61
2023/05/09 09:40:54;;;;;;;7.47;6.77;;;;;;;21.02;100.00;96281.63;5010786;28;105310;-61
2023/05/09 09:43:26;;;;;;;7.67;6.47;;;;;;;21.22;100.00;96272.06;5014333;28;101715;-61
2023/05/09 09:45:55;;;;;;;6.63;6.03;;;;;;;21.56;100.00;96272.81;5012208;28;102336;-61
2023/05/09 09:48:24;;;;;;;8.70;7.90;;;;;;;21.60;100.00;96275.66;5011370;28;103617;-61
2023/05/09 09:50:51;;;;;;;7.63;7.03;;;;;;;21.80;98.75;96269.59;5012178;28;101994;-61
2023/05/09 09:53:20;;;;;;;7.40;6.80;;;;;;;21.11;97.02;96262.69;5012220;28;102311;-61
2023/05/09 09:55:53;;;;;;;7.53;6.73;;;;;;;21.37;100.00;96258.06;5011050;28;103116;-61
2023/05/09 09:58:23;;;;;;;6.03;5.43;;;;;;;21.75;100.00;96258.94;5010190;28;101999;-61
2023/05/09 10:01:04;;;;;;;7.10;6.40;;;;;;;21.63;95.12;96258.78;5010516;28;104128;-61
2023/05/09 10:03:36;;;;;;;9.33;8.53;;;;;;;21.33;100.00;96254.41;5013323;28;104953;-61
2023/05/09 10:06:03;;;;;;;9.87;8.97;;;;;;;20.97;100.00;96243.13;5010557;28;104851;-61
2023/05/09 10:08:30;;;;;;;9.93;8.70;;;;;;;21.20;100.00;96245.34;5009684;28;105424;-61
2023/05/09 10:10:57;;;;;;;9.50;8.63;;;;;;;21.41;100.00;96240.06;5010143;28;102008;-61
2023/05/09 10:13:25;;;;;;;7.37;6.67;;;;;;;21.90;100.00;96231.34;5004745;28;104937;-61
2023/05/09 10:15:54;;;;;;;7.73;6.97;;;;;;;22.01;100.00;96233.34;4989591;28;105749;-61
2023/05/09 10:18:26;;;;;;;7.33;6.70;;;;;;;22.44;100.00;96222.28;4990283;28;102046;-61
2023/05/09 10:20:54;;;;;;;8.40;7.67;;;;;;;22.67;100.00;96215.44;4990392;28;105217;-61
2023/05/09 10:23:21;;;;;;;7.87;7.13;;;;;;;22.97;95.87;96204.16;4989221;28;104136;-61
2023/05/09 10:25:54;;;;;;;7.13;6.53;;;;;;;23.34;93.61;96208.63;5002433;28;101943;-61
2023/05/09 10:28:26;;;;;;;6.63;6.03;;;;;;;22.80;90.79;96212.44;5007750;28;105435;-61
2023/05/09 10:30:57;;;;;;;6.10;5.50;;;;;;;23.02;81.22;96206.66;5006927;28;101853;-61
2023/05/09 10:33:30;;;;;;;4.60;4.20;;;;;;;23.52;79.75;96198.34;5010088;28;101816;-61
2023/05/09 10:35:58;;;;;;;5.07;4.67;;;;;;;23.73;79.07;96191.72;5008082;28;105000;-61
2023/05/09 10:38:26;;;;;;;4.60;4.20;;;;;;;24.19;73.50;96191.28;5008653;28;101822;-61
2023/05/09 10:40:54;;;;;;;5.63;5.10;;;;;;;23.48;78.01;96187.38;5008467;28;105227;-61
2023/05/09 10:43:22;;;;;;;5.57;5.10;;;;;;;23.87;74.31;96181.31;5009120;28;102975;-61
2023/05/09 10:45:50;;;;;;;6.53;5.73;;;;;;;24.08;72.10;96173.84;5006070;28;101972;-61
2023/05/09 10:48:18;;;;;;;7.60;6.90;;;;;;;23.91;86.79;96176.00;5011361;28;105475;-61
2023/05/09 10:50:46;;;;;;;6.57;6.00;;;;;;;23.95;81.13;96171.50;5009628;28;102558;-61
2023/05/09 10:53:17;;;;;;;6.10;5.60;;;;;;;24.34;81.54;96170.75;5009956;28;104818;-61
2023/05/09 10:55:52;;;;;;;5.07;4.67;;;;;;;24.21;65.57;96169.22;5008930;28;105448;-61
2023/05/09 10:58:25;;;;;;;4.70;4.30;;;;;;;24.25;66.57;96161.97;5009875;28;101776;-61
2023/05/09 11:00:54;;;;;;;4.80;4.40;;;;;;;24.26;67.51;96156.16;5009807;28;105463;-61
2023/05/09 11:03:22;;;;;;;5.00;4.60;;;;;;;24.66;69.06;96146.16;5008773;28;105879;-61
2023/05/09 11:05:55;;;;;;;5.47;4.17;;;;;;;24.88;64.68;96142.06;5009814;28;101890;-61
2023/05/09 11:08:25;;;;;;;4.60;4.20;;;;;;;24.66;64.24;96139.91;5009686;28;105016;-61
2023/05/09 11:10:53;;;;;;;4.73;4.33;;;;;;;24.80;63.83;96137.59;5012258;28;105724;-61
2023/05/09 11:13:22;;;;;;;4.30;4.00;;;;;;;24.74;65.71;96130.81;5009422;28;105230;-61
2023/05/09 11:16:07;;;;;;;4.30;4.00;;;;;;;24.75;60.65;96124.25;5008417;28;105605;-61
2023/05/09 11:18:34;;;;;;;4.77;3.77;;;;;;;24.96;62.12;96124.81;5009460;28;101773;-61
2023/05/09 11:21:09;;;;;;;7.30;3.77;;;;;;;25.16;61.79;96123.78;5009277;28;105158;-61
2023/05/09 11:23:38;;;;;;;4.00;3.70;;;;;;;25.01;56.99;96124.56;5009990;28;102556;-61
2023/05/09 11:26:06;;;;;;;3.93;3.60;;;;;;;24.85;56.79;96110.16;5009180;28;101894;-61
2023/05/09 11:28:34;;;;;;;3.60;3.40;;;;;;;25.13;57.68;96106.22;5008588;28;105773;-61
2023/05/09 11:31:12;;;;;;;2.97;2.50;;;;;;;25.40;59.03;96096.47;5008610;28;103985;-61
2023/05/09 11:33:40;;;;;;;3.23;3.03;;;;;;;24.60;60.81;96097.78;5012768;28;102368;-61
2023/05/09 11:36:28;;;;;;;3.50;3.20;;;;;;;24.74;59.64;96092.75;5009222;28;102845;-61